sensor_id;sensor_type;location;lat;lon;timestamp;P1;durP1;ratioP1;P2;durP2;ratioP2
53674;SDS011;39574;50.534;8.500;2023-04-28T00:04:41;10.5;;;4.9;;
53674;SDS011;39574;50.534;8.500;2023-04-28T00:09:40;9.9;;;4.7;;
53674;SDS011;39574;50.534;8.500;2023-04-28T00:14:39;9.1;;;4.6;;
53674;SDS011;39574;50.534;8.500;2023-04-28T00:19:38;9.4;;;4.6;;
53674;SDS011;39574;50.534;8.500;2023-04-28T00:24:38;9.3;;;4.8;;
53674;SDS011;39574;50.534;8.500;2023-04-28T00:29:41;9.0;;;4.8;;
53674;SDS011;39574;50.534;8.500;2023-04-28T00:34:35;9.4;;;4.7;;
53674;SDS011;39574;50.534;8.500;2023-04-28T00:39:35;9.5;;;5.1;;
53674;SDS011;39574;50.534;8.500;2023-04-28T00:44:33;10.2;;;5.5;;
53674;SDS011;39574;50.534;8.500;2023-04-28T00:49:33;9.6;;;5.6;;
53674;SDS011;39574;50.534;8.500;2023-04-28T00:54:32;9.8;;;5.6;;
53674;SDS011;39574;50.534;8.500;2023-04-28T00:59:30;9.9;;;5.5;;
53674;SDS011;39574;50.534;8.500;2023-04-28T01:04:30;9.6;;;5.5;;
53674;SDS011;39574;50.534;8.500;2023-04-28T01:09:29;8.9;;;5.3;;
53674;SDS011;39574;50.534;8.500;2023-04-28T01:14:28;10.1;;;5.4;;
53674;SDS011;39574;50.534;8.500;2023-04-28T01:19:27;10.2;;;5.3;;
53674;SDS011;39574;50.534;8.500;2023-04-28T01:24:26;9.9;;;5.2;;
53674;SDS011;39574;50.534;8.500;2023-04-28T01:29:25;9.3;;;5.0;;
53674;SDS011;39574;50.534;8.500;2023-04-28T01:34:28;9.3;;;5.0;;
53674;SDS011;39574;50.534;8.500;2023-04-28T01:39:23;9.2;;;5.0;;
53674;SDS011;39574;50.534;8.500;2023-04-28T01:44:22;9.5;;;5.2;;
53674;SDS011;39574;50.534;8.500;2023-04-28T01:49:21;9.7;;;5.3;;
53674;SDS011;39574;50.534;8.500;2023-04-28T01:54:24;10.5;;;5.4;;
53674;SDS011;39574;50.534;8.500;2023-04-28T01:59:23;9.4;;;5.4;;
53674;SDS011;39574;50.534;8.500;2023-04-28T02:04:19;9.5;;;5.3;;
53674;SDS011;39574;50.534;8.500;2023-04-28T02:09:17;9.6;;;5.4;;
53674;SDS011;39574;50.534;8.500;2023-04-28T02:14:17;8.7;;;5.3;;
53674;SDS011;39574;50.534;8.500;2023-04-28T02:19:16;8.7;;;5.3;;
53674;SDS011;39574;50.534;8.500;2023-04-28T02:24:15;10.0;;;5.5;;
53674;SDS011;39574;50.534;8.500;2023-04-28T02:29:14;11.0;;;6.1;;
53674;SDS011;39574;50.534;8.500;2023-04-28T02:34:12;10.5;;;6.0;;
53674;SDS011;39574;50.534;8.500;2023-04-28T02:39:11;11.2;;;6.1;;
53674;SDS011;39574;50.534;8.500;2023-04-28T02:44:11;11.8;;;6.2;;
53674;SDS011;39574;50.534;8.500;2023-04-28T02:49:10;12.3;;;6.2;;
53674;SDS011;39574;50.534;8.500;2023-04-28T02:54:08;11.5;;;6.1;;
53674;SDS011;39574;50.534;8.500;2023-04-28T02:59:07;11.6;;;6.3;;
53674;SDS011;39574;50.534;8.500;2023-04-28T03:04:06;10.9;;;6.4;;
53674;SDS011;39574;50.534;8.500;2023-04-28T03:09:09;11.0;;;6.6;;
53674;SDS011;39574;50.534;8.500;2023-04-28T03:14:04;11.3;;;6.9;;
53674;SDS011;39574;50.534;8.500;2023-04-28T03:19:04;11.0;;;6.8;;
53674;SDS011;39574;50.534;8.500;2023-04-28T03:24:03;10.6;;;6.7;;
53674;SDS011;39574;50.534;8.500;2023-04-28T03:29:01;10.1;;;6.5;;
53674;SDS011;39574;50.534;8.500;2023-04-28T03:34:00;9.8;;;6.4;;
53674;SDS011;39574;50.534;8.500;2023-04-28T03:38:59;9.6;;;6.4;;
53674;SDS011;39574;50.534;8.500;2023-04-28T03:43:59;9.2;;;6.1;;
53674;SDS011;39574;50.534;8.500;2023-04-28T03:48:57;9.8;;;6.3;;
53674;SDS011;39574;50.534;8.500;2023-04-28T03:53:56;9.5;;;6.2;;
53674;SDS011;39574;50.534;8.500;2023-04-28T03:58:56;9.7;;;6.4;;
53674;SDS011;39574;50.534;8.500;2023-04-28T04:03:55;10.7;;;6.8;;
53674;SDS011;39574;50.534;8.500;2023-04-28T04:08:53;10.5;;;6.6;;
53674;SDS011;39574;50.534;8.500;2023-04-28T04:13:52;10.8;;;6.5;;
53674;SDS011;39574;50.534;8.500;2023-04-28T04:18:51;11.6;;;6.7;;
53674;SDS011;39574;50.534;8.500;2023-04-28T04:23:51;12.4;;;6.6;;
53674;SDS011;39574;50.534;8.500;2023-04-28T04:28:49;11.8;;;6.5;;
53674;SDS011;39574;50.534;8.500;2023-04-28T04:33:49;12.1;;;6.4;;
53674;SDS011;39574;50.534;8.500;2023-04-28T04:38:47;11.6;;;6.4;;
53674;SDS011;39574;50.534;8.500;2023-04-28T04:43:50;12.0;;;6.9;;
53674;SDS011;39574;50.534;8.500;2023-04-28T04:48:45;13.3;;;7.5;;
53674;SDS011;39574;50.534;8.500;2023-04-28T04:53:44;14.4;;;8.5;;
53674;SDS011;39574;50.534;8.500;2023-04-28T04:58:43;14.7;;;9.1;;
53674;SDS011;39574;50.534;8.500;2023-04-28T05:03:42;14.7;;;8.8;;
53674;SDS011;39574;50.534;8.500;2023-04-28T05:08:41;14.5;;;8.9;;
53674;SDS011;39574;50.534;8.500;2023-04-28T05:13:44;14.6;;;9.0;;
53674;SDS011;39574;50.534;8.500;2023-04-28T05:18:38;15.5;;;9.0;;
53674;SDS011;39574;50.534;8.500;2023-04-28T05:23:38;15.8;;;9.3;;
53674;SDS011;39574;50.534;8.500;2023-04-28T05:28:38;15.1;;;9.4;;
53674;SDS011;39574;50.534;8.500;2023-04-28T05:33:36;14.3;;;9.3;;
53674;SDS011;39574;50.534;8.500;2023-04-28T05:38:35;14.6;;;9.3;;
53674;SDS011;39574;50.534;8.500;2023-04-28T05:43:34;15.4;;;9.4;;
53674;SDS011;39574;50.534;8.500;2023-04-28T05:48:33;16.2;;;9.3;;
53674;SDS011;39574;50.534;8.500;2023-04-28T05:53:31;15.8;;;9.2;;
53674;SDS011;39574;50.534;8.500;2023-04-28T05:58:30;16.8;;;10.2;;
53674;SDS011;39574;50.534;8.500;2023-04-28T06:03:29;18.4;;;11.6;;
53674;SDS011;39574;50.534;8.500;2023-04-28T06:08:29;17.1;;;10.9;;
53674;SDS011;39574;50.534;8.500;2023-04-28T06:13:27;16.6;;;10.9;;
53674;SDS011;39574;50.534;8.500;2023-04-28T06:18:29;15.4;;;10.3;;
53674;SDS011;39574;50.534;8.500;2023-04-28T06:23:26;15.6;;;10.2;;
53674;SDS011;39574;50.534;8.500;2023-04-28T06:28:25;15.5;;;10.0;;
53674;SDS011;39574;50.534;8.500;2023-04-28T06:33:24;16.4;;;10.6;;
53674;SDS011;39574;50.534;8.500;2023-04-28T06:38:22;16.9;;;10.7;;
53674;SDS011;39574;50.534;8.500;2023-04-28T06:43:21;16.5;;;10.5;;
53674;SDS011;39574;50.534;8.500;2023-04-28T06:48:20;15.7;;;10.5;;
53674;SDS011;39574;50.534;8.500;2023-04-28T06:58:19;16.4;;;10.8;;
53674;SDS011;39574;50.534;8.500;2023-04-28T07:03:17;15.9;;;10.7;;
53674;SDS011;39574;50.534;8.500;2023-04-28T07:08:17;15.2;;;10.5;;
53674;SDS011;39574;50.534;8.500;2023-04-28T07:13:16;15.4;;;10.4;;
53674;SDS011;39574;50.534;8.500;2023-04-28T07:18:14;14.9;;;10.5;;
53674;SDS011;39574;50.534;8.500;2023-04-28T07:23:13;15.1;;;10.6;;
53674;SDS011;39574;50.534;8.500;2023-04-28T07:28:12;15.5;;;10.7;;
53674;SDS011;39574;50.534;8.500;2023-04-28T07:33:12;16.0;;;10.7;;
53674;SDS011;39574;50.534;8.500;2023-04-28T07:38:10;16.9;;;10.8;;
53674;SDS011;39574;50.534;8.500;2023-04-28T07:43:09;16.6;;;10.9;;
53674;SDS011;39574;50.534;8.500;2023-04-28T07:53:07;16.5;;;10.8;;
53674;SDS011;39574;50.534;8.500;2023-04-28T07:58:06;15.7;;;10.8;;
53674;SDS011;39574;50.534;8.500;2023-04-28T08:03:06;16.4;;;10.9;;
53674;SDS011;39574;50.534;8.500;2023-04-28T08:08:04;17.5;;;11.6;;
53674;SDS011;39574;50.534;8.500;2023-04-28T08:13:03;17.5;;;12.0;;
53674;SDS011;39574;50.534;8.500;2023-04-28T08:18:02;18.9;;;12.9;;
53674;SDS011;39574;50.534;8.500;2023-04-28T08:28:00;19.2;;;13.3;;
53674;SDS011;39574;50.534;8.500;2023-04-28T08:33:00;19.4;;;13.6;;
53674;SDS011;39574;50.534;8.500;2023-04-28T08:37:58;19.5;;;14.1;;
53674;SDS011;39574;50.534;8.500;2023-04-28T08:42:58;18.0;;;13.2;;
53674;SDS011;39574;50.534;8.500;2023-04-28T08:47:56;17.6;;;13.2;;
53674;SDS011;39574;50.534;8.500;2023-04-28T08:52:55;17.7;;;13.7;;
53674;SDS011;39574;50.534;8.500;2023-04-28T08:57:54;16.9;;;13.1;;
53674;SDS011;39574;50.534;8.500;2023-04-28T09:02:53;16.0;;;12.5;;
53674;SDS011;39574;50.534;8.500;2023-04-28T09:07:52;15.4;;;12.0;;
53674;SDS011;39574;50.534;8.500;2023-04-28T09:12:52;15.7;;;11.8;;
53674;SDS011;39574;50.534;8.500;2023-04-28T09:17:51;15.2;;;11.5;;
53674;SDS011;39574;50.534;8.500;2023-04-28T09:22:50;15.8;;;11.8;;
53674;SDS011;39574;50.534;8.500;2023-04-28T09:27:49;17.1;;;12.4;;
53674;SDS011;39574;50.534;8.500;2023-04-28T09:32:53;17.9;;;13.2;;
53674;SDS011;39574;50.534;8.500;2023-04-28T09:37:46;20.9;;;14.8;;
53674;SDS011;39574;50.534;8.500;2023-04-28T09:42:46;20.3;;;14.5;;
53674;SDS011;39574;50.534;8.500;2023-04-28T09:47:45;20.3;;;14.1;;
53674;SDS011;39574;50.534;8.500;2023-04-28T09:52:44;19.9;;;14.0;;
53674;SDS011;39574;50.534;8.500;2023-04-28T09:57:43;18.7;;;13.8;;
53674;SDS011;39574;50.534;8.500;2023-04-28T10:02:41;17.5;;;13.7;;
53674;SDS011;39574;50.534;8.500;2023-04-28T10:07:40;18.3;;;13.9;;
53674;SDS011;39574;50.534;8.500;2023-04-28T10:12:40;18.6;;;14.4;;
53674;SDS011;39574;50.534;8.500;2023-04-28T10:17:39;18.4;;;14.2;;
53674;SDS011;39574;50.534;8.500;2023-04-28T10:22:42;18.7;;;14.0;;
53674;SDS011;39574;50.534;8.500;2023-04-28T10:27:37;18.1;;;14.0;;
53674;SDS011;39574;50.534;8.500;2023-04-28T10:32:36;19.6;;;14.9;;
53674;SDS011;39574;50.534;8.500;2023-04-28T10:38:07;35.6;;;22.3;;
53674;SDS011;39574;50.534;8.500;2023-04-28T10:43:06;36.7;;;23.1;;
53674;SDS011;39574;50.534;8.500;2023-04-28T10:47:48;31.5;;;20.4;;
53674;SDS011;39574;50.534;8.500;2023-04-28T10:52:46;24.9;;;17.1;;
53674;SDS011;39574;50.534;8.500;2023-04-28T11:12:29;18.5;;;13.8;;
53674;SDS011;39574;50.534;8.500;2023-04-28T11:17:34;16.4;;;12.5;;
53674;SDS011;39574;50.534;8.500;2023-04-28T11:22:27;16.4;;;12.7;;
53674;SDS011;39574;50.534;8.500;2023-04-28T11:27:27;16.3;;;12.6;;
53674;SDS011;39574;50.534;8.500;2023-04-28T11:32:26;16.0;;;12.3;;
53674;SDS011;39574;50.534;8.500;2023-04-28T11:37:25;15.7;;;12.1;;
53674;SDS011;39574;50.534;8.500;2023-04-28T11:42:24;15.2;;;11.8;;
53674;SDS011;39574;50.534;8.500;2023-04-28T11:47:31;15.4;;;11.7;;
53674;SDS011;39574;50.534;8.500;2023-04-28T11:52:22;15.9;;;12.0;;
53674;SDS011;39574;50.534;8.500;2023-04-28T11:57:24;14.2;;;11.0;;
53674;SDS011;39574;50.534;8.500;2023-04-28T12:02:24;12.2;;;9.5;;
53674;SDS011;39574;50.534;8.500;2023-04-28T12:07:20;10.7;;;8.1;;
53674;SDS011;39574;50.534;8.500;2023-04-28T12:12:27;9.1;;;6.8;;
53674;SDS011;39574;50.534;8.500;2023-04-28T12:17:22;9.7;;;7.3;;
53674;SDS011;39574;50.534;8.500;2023-04-28T12:22:21;10.8;;;8.2;;
53674;SDS011;39574;50.534;8.500;2023-04-28T12:27:18;10.8;;;8.3;;
53674;SDS011;39574;50.534;8.500;2023-04-28T12:32:35;11.3;;;8.5;;
53674;SDS011;39574;50.534;8.500;2023-04-28T12:37:16;11.8;;;8.3;;
53674;SDS011;39574;50.534;8.500;2023-04-28T12:42:16;10.8;;;7.6;;
53674;SDS011;39574;50.534;8.500;2023-04-28T12:47:15;10.9;;;8.0;;
53674;SDS011;39574;50.534;8.500;2023-04-28T12:52:14;10.7;;;8.2;;
53674;SDS011;39574;50.534;8.500;2023-04-28T12:57:13;10.5;;;8.3;;
53674;SDS011;39574;50.534;8.500;2023-04-28T13:02:13;10.8;;;8.7;;
53674;SDS011;39574;50.534;8.500;2023-04-28T13:07:12;10.9;;;9.1;;
53674;SDS011;39574;50.534;8.500;2023-04-28T13:12:12;11.5;;;9.3;;
53674;SDS011;39574;50.534;8.500;2023-04-28T13:17:11;11.9;;;9.5;;
53674;SDS011;39574;50.534;8.500;2023-04-28T13:22:10;13.0;;;10.0;;
53674;SDS011;39574;50.534;8.500;2023-04-28T13:27:10;14.1;;;10.9;;
53674;SDS011;39574;50.534;8.500;2023-04-28T13:32:09;15.5;;;12.1;;
53674;SDS011;39574;50.534;8.500;2023-04-28T13:37:09;17.4;;;13.2;;
53674;SDS011;39574;50.534;8.500;2023-04-28T13:42:08;17.1;;;13.0;;
53674;SDS011;39574;50.534;8.500;2023-04-28T13:47:07;17.5;;;12.7;;
53674;SDS011;39574;50.534;8.500;2023-04-28T13:52:06;16.6;;;12.2;;
53674;SDS011;39574;50.534;8.500;2023-04-28T13:57:06;16.4;;;12.1;;
53674;SDS011;39574;50.534;8.500;2023-04-28T14:02:05;15.4;;;11.6;;
53674;SDS011;39574;50.534;8.500;2023-04-28T14:07:04;15.4;;;11.2;;
53674;SDS011;39574;50.534;8.500;2023-04-28T14:12:04;15.0;;;10.7;;
53674;SDS011;39574;50.534;8.500;2023-04-28T14:17:04;14.8;;;10.7;;
53674;SDS011;39574;50.534;8.500;2023-04-28T14:22:03;15.0;;;10.7;;
53674;SDS011;39574;50.534;8.500;2023-04-28T14:27:02;17.2;;;12.3;;
53674;SDS011;39574;50.534;8.500;2023-04-28T14:32:01;19.2;;;13.5;;
53674;SDS011;39574;50.534;8.500;2023-04-28T14:37:01;20.9;;;14.6;;
53674;SDS011;39574;50.534;8.500;2023-04-28T14:42:01;21.2;;;15.1;;
53674;SDS011;39574;50.534;8.500;2023-04-28T14:46:59;20.0;;;15.0;;
53674;SDS011;39574;50.534;8.500;2023-04-28T14:51:59;19.2;;;14.2;;
53674;SDS011;39574;50.534;8.500;2023-04-28T14:56:59;18.1;;;13.0;;
53674;SDS011;39574;50.534;8.500;2023-04-28T15:01:58;17.3;;;12.4;;
53674;SDS011;39574;50.534;8.500;2023-04-28T15:06:57;16.0;;;11.5;;
53674;SDS011;39574;50.534;8.500;2023-04-28T15:11:57;15.7;;;11.2;;
53674;SDS011;39574;50.534;8.500;2023-04-28T15:16:56;14.2;;;10.3;;
53674;SDS011;39574;50.534;8.500;2023-04-28T15:21:55;12.3;;;8.8;;
53674;SDS011;39574;50.534;8.500;2023-04-28T15:26:55;10.3;;;7.1;;
53674;SDS011;39574;50.534;8.500;2023-04-28T15:31:54;8.1;;;5.4;;
53674;SDS011;39574;50.534;8.500;2023-04-28T15:36:53;7.4;;;4.8;;
53674;SDS011;39574;50.534;8.500;2023-04-28T15:46:52;6.2;;;3.8;;
53674;SDS011;39574;50.534;8.500;2023-04-28T15:51:52;4.6;;;3.0;;
53674;SDS011;39574;50.534;8.500;2023-04-28T15:56:51;4.0;;;2.5;;
53674;SDS011;39574;50.534;8.500;2023-04-28T16:01:50;3.8;;;2.1;;
53674;SDS011;39574;50.534;8.500;2023-04-28T16:06:49;3.5;;;2.0;;
53674;SDS011;39574;50.534;8.500;2023-04-28T16:11:49;3.5;;;2.1;;
53674;SDS011;39574;50.534;8.500;2023-04-28T16:16:52;3.8;;;2.1;;
53674;SDS011;39574;50.534;8.500;2023-04-28T16:21:48;3.5;;;2.1;;
53674;SDS011;39574;50.534;8.500;2023-04-28T16:26:47;3.4;;;2.1;;
53674;SDS011;39574;50.534;8.500;2023-04-28T16:31:46;3.3;;;2.0;;
53674;SDS011;39574;50.534;8.500;2023-04-28T16:36:46;3.3;;;2.0;;
53674;SDS011;39574;50.534;8.500;2023-04-28T16:41:45;3.0;;;2.0;;
53674;SDS011;39574;50.534;8.500;2023-04-28T16:46:44;2.9;;;1.9;;
53674;SDS011;39574;50.534;8.500;2023-04-28T16:51:53;2.8;;;1.8;;
53674;SDS011;39574;50.534;8.500;2023-04-28T16:56:43;3.2;;;1.9;;
53674;SDS011;39574;50.534;8.500;2023-04-28T17:01:42;3.3;;;1.9;;
53674;SDS011;39574;50.534;8.500;2023-04-28T17:06:41;2.9;;;1.9;;
53674;SDS011;39574;50.534;8.500;2023-04-28T17:11:41;2.7;;;1.7;;
53674;SDS011;39574;50.534;8.500;2023-04-28T17:16:40;2.9;;;1.7;;
53674;SDS011;39574;50.534;8.500;2023-04-28T17:21:39;5.5;;;2.4;;
53674;SDS011;39574;50.534;8.500;2023-04-28T17:26:38;7.4;;;3.5;;
53674;SDS011;39574;50.534;8.500;2023-04-28T17:31:38;7.5;;;3.9;;
53674;SDS011;39574;50.534;8.500;2023-04-28T17:36:37;6.2;;;3.2;;
53674;SDS011;39574;50.534;8.500;2023-04-28T17:41:36;5.0;;;2.5;;
53674;SDS011;39574;50.534;8.500;2023-04-28T17:46:36;5.0;;;2.4;;
53674;SDS011;39574;50.534;8.500;2023-04-28T17:51:35;4.7;;;2.3;;
53674;SDS011;39574;50.534;8.500;2023-04-28T17:56:35;5.0;;;2.3;;
53674;SDS011;39574;50.534;8.500;2023-04-28T18:01:33;4.5;;;2.1;;
53674;SDS011;39574;50.534;8.500;2023-04-28T18:06:33;3.9;;;2.0;;
53674;SDS011;39574;50.534;8.500;2023-04-28T18:11:32;5.0;;;2.9;;
53674;SDS011;39574;50.534;8.500;2023-04-28T18:16:31;5.1;;;2.9;;
53674;SDS011;39574;50.534;8.500;2023-04-28T18:21:31;5.1;;;2.7;;
53674;SDS011;39574;50.534;8.500;2023-04-28T18:26:30;4.5;;;2.4;;
53674;SDS011;39574;50.534;8.500;2023-04-28T18:31:29;3.9;;;2.0;;
53674;SDS011;39574;50.534;8.500;2023-04-28T18:36:28;4.2;;;2.1;;
53674;SDS011;39574;50.534;8.500;2023-04-28T18:41:27;4.2;;;2.4;;
53674;SDS011;39574;50.534;8.500;2023-04-28T18:46:26;3.5;;;2.0;;
53674;SDS011;39574;50.534;8.500;2023-04-28T18:51:26;3.2;;;1.8;;
53674;SDS011;39574;50.534;8.500;2023-04-28T18:56:25;2.9;;;1.7;;
53674;SDS011;39574;50.534;8.500;2023-04-28T19:01:24;2.8;;;1.6;;
53674;SDS011;39574;50.534;8.500;2023-04-28T19:06:23;3.2;;;2.0;;
53674;SDS011;39574;50.534;8.500;2023-04-28T19:11:23;4.6;;;2.7;;
53674;SDS011;39574;50.534;8.500;2023-04-28T19:16:21;6.5;;;3.8;;
53674;SDS011;39574;50.534;8.500;2023-04-28T19:21:21;7.2;;;4.6;;
53674;SDS011;39574;50.534;8.500;2023-04-28T19:26:20;7.1;;;4.6;;
53674;SDS011;39574;50.534;8.500;2023-04-28T19:31:19;6.7;;;4.5;;
53674;SDS011;39574;50.534;8.500;2023-04-28T19:36:18;5.8;;;4.2;;
53674;SDS011;39574;50.534;8.500;2023-04-28T19:41:18;6.5;;;4.6;;
53674;SDS011;39574;50.534;8.500;2023-04-28T19:46:21;8.6;;;6.0;;
53674;SDS011;39574;50.534;8.500;2023-04-28T19:51:16;9.1;;;6.2;;
53674;SDS011;39574;50.534;8.500;2023-04-28T19:56:15;8.1;;;5.5;;
53674;SDS011;39574;50.534;8.500;2023-04-28T20:01:14;7.4;;;4.9;;
53674;SDS011;39574;50.534;8.500;2023-04-28T20:06:14;6.8;;;4.3;;
53674;SDS011;39574;50.534;8.500;2023-04-28T20:11:12;6.6;;;4.4;;
53674;SDS011;39574;50.534;8.500;2023-04-28T20:16:11;6.8;;;4.5;;
53674;SDS011;39574;50.534;8.500;2023-04-28T20:21:14;7.4;;;4.7;;
53674;SDS011;39574;50.534;8.500;2023-04-28T20:26:11;7.2;;;4.8;;
53674;SDS011;39574;50.534;8.500;2023-04-28T20:31:09;7.1;;;4.6;;
53674;SDS011;39574;50.534;8.500;2023-04-28T20:36:07;7.4;;;4.9;;
53674;SDS011;39574;50.534;8.500;2023-04-28T20:41:06;6.4;;;4.6;;
53674;SDS011;39574;50.534;8.500;2023-04-28T20:46:07;5.9;;;4.4;;
53674;SDS011;39574;50.534;8.500;2023-04-28T20:51:06;5.6;;;4.4;;
53674;SDS011;39574;50.534;8.500;2023-04-28T20:56:04;5.5;;;4.3;;
53674;SDS011;39574;50.534;8.500;2023-04-28T21:01:03;6.4;;;4.6;;
53674;SDS011;39574;50.534;8.500;2023-04-28T21:06:03;7.0;;;5.0;;
53674;SDS011;39574;50.534;8.500;2023-04-28T21:11:01;7.1;;;5.3;;
53674;SDS011;39574;50.534;8.500;2023-04-28T21:16:01;7.2;;;5.1;;
53674;SDS011;39574;50.534;8.500;2023-04-28T21:21:00;6.9;;;4.8;;
53674;SDS011;39574;50.534;8.500;2023-04-28T21:25:59;7.0;;;4.7;;
53674;SDS011;39574;50.534;8.500;2023-04-28T21:30:58;9.0;;;6.3;;
53674;SDS011;39574;50.534;8.500;2023-04-28T21:36:01;11.7;;;8.1;;
53674;SDS011;39574;50.534;8.500;2023-04-28T21:40:56;10.1;;;7.2;;
53674;SDS011;39574;50.534;8.500;2023-04-28T21:45:55;10.3;;;7.6;;
53674;SDS011;39574;50.534;8.500;2023-04-28T21:50:54;9.9;;;7.6;;
53674;SDS011;39574;50.534;8.500;2023-04-28T21:55:54;8.7;;;6.8;;
53674;SDS011;39574;50.534;8.500;2023-04-28T22:00:53;8.6;;;6.8;;
53674;SDS011;39574;50.534;8.500;2023-04-28T22:05:52;8.5;;;6.8;;
53674;SDS011;39574;50.534;8.500;2023-04-28T22:10:50;8.5;;;6.8;;
53674;SDS011;39574;50.534;8.500;2023-04-28T22:15:50;8.3;;;6.4;;
53674;SDS011;39574;50.534;8.500;2023-04-28T22:20:49;7.9;;;5.7;;
53674;SDS011;39574;50.534;8.500;2023-04-28T22:25:48;8.2;;;6.0;;
53674;SDS011;39574;50.534;8.500;2023-04-28T22:30:47;8.8;;;6.4;;
53674;SDS011;39574;50.534;8.500;2023-04-28T22:35:46;8.9;;;6.4;;
53674;SDS011;39574;50.534;8.500;2023-04-28T22:40:45;8.1;;;5.6;;
53674;SDS011;39574;50.534;8.500;2023-04-28T22:45:47;8.1;;;5.3;;
53674;SDS011;39574;50.534;8.500;2023-04-28T22:50:44;7.7;;;4.8;;
53674;SDS011;39574;50.534;8.500;2023-04-28T22:55:43;6.3;;;4.1;;
53674;SDS011;39574;50.534;8.500;2023-04-28T23:00:42;5.6;;;3.9;;
53674;SDS011;39574;50.534;8.500;2023-04-28T23:05:41;6.1;;;4.1;;
53674;SDS011;39574;50.534;8.500;2023-04-28T23:10:40;6.1;;;4.2;;
53674;SDS011;39574;50.534;8.500;2023-04-28T23:15:39;7.3;;;4.5;;
53674;SDS011;39574;50.534;8.500;2023-04-28T23:20:38;6.9;;;4.3;;
53674;SDS011;39574;50.534;8.500;2023-04-28T23:25:39;6.3;;;4.2;;
53674;SDS011;39574;50.534;8.500;2023-04-28T23:30:36;5.9;;;4.1;;
53674;SDS011;39574;50.534;8.500;2023-04-28T23:35:35;6.1;;;3.8;;
53674;SDS011;39574;50.534;8.500;2023-04-28T23:40:34;5.6;;;3.4;;
53674;SDS011;39574;50.534;8.500;2023-04-28T23:45:34;5.3;;;3.1;;
53674;SDS011;39574;50.534;8.500;2023-04-28T23:50:32;5.2;;;3.2;;
53674;SDS011;39574;50.534;8.500;2023-04-28T23:55:31;6.3;;;3.4;;
